sensor_id;sensor_type;location;lat;lon;timestamp;P1;durP1;ratioP1;P2;durP2;ratioP2
7917;SDS011;4004;42.624;23.386;2023-12-20T00:01:18;11.80;;;9.38;;
7917;SDS011;4004;42.624;23.386;2023-12-20T00:03:45;12.10;;;9.23;;
7917;SDS011;4004;42.624;23.386;2023-12-20T00:06:11;11.57;;;8.77;;
7917;SDS011;4004;42.624;23.386;2023-12-20T00:08:38;12.40;;;8.95;;
7917;SDS011;4004;42.624;23.386;2023-12-20T00:11:05;10.80;;;8.95;;
7917;SDS011;4004;42.624;23.386;2023-12-20T00:13:33;12.95;;;8.68;;
7917;SDS011;4004;42.624;23.386;2023-12-20T00:16:00;11.35;;;9.45;;
7917;SDS011;4004;42.624;23.386;2023-12-20T00:18:27;10.82;;;8.35;;
7917;SDS011;4004;42.624;23.386;2023-12-20T00:20:54;11.32;;;8.43;;
7917;SDS011;4004;42.624;23.386;2023-12-20T00:23:21;11.73;;;8.45;;
7917;SDS011;4004;42.624;23.386;2023-12-20T00:25:49;10.73;;;8.02;;
7917;SDS011;4004;42.624;23.386;2023-12-20T00:28:16;11.93;;;8.50;;
7917;SDS011;4004;42.624;23.386;2023-12-20T00:30:44;11.63;;;7.22;;
7917;SDS011;4004;42.624;23.386;2023-12-20T00:33:11;10.52;;;7.85;;
7917;SDS011;4004;42.624;23.386;2023-12-20T00:35:38;10.40;;;7.22;;
7917;SDS011;4004;42.624;23.386;2023-12-20T00:38:05;11.60;;;8.18;;
7917;SDS011;4004;42.624;23.386;2023-12-20T00:40:33;10.80;;;7.55;;
7917;SDS011;4004;42.624;23.386;2023-12-20T00:43:00;9.88;;;7.05;;
7917;SDS011;4004;42.624;23.386;2023-12-20T00:45:27;9.60;;;6.97;;
7917;SDS011;4004;42.624;23.386;2023-12-20T00:47:55;11.13;;;7.38;;
7917;SDS011;4004;42.624;23.386;2023-12-20T00:50:22;9.52;;;7.55;;
7917;SDS011;4004;42.624;23.386;2023-12-20T00:52:49;9.95;;;7.57;;
7917;SDS011;4004;42.624;23.386;2023-12-20T00:55:16;10.43;;;6.15;;
7917;SDS011;4004;42.624;23.386;2023-12-20T00:57:43;8.35;;;5.78;;
7917;SDS011;4004;42.624;23.386;2023-12-20T01:00:10;10.07;;;6.90;;
7917;SDS011;4004;42.624;23.386;2023-12-20T01:02:38;10.73;;;7.65;;
7917;SDS011;4004;42.624;23.386;2023-12-20T01:05:07;10.95;;;7.75;;
7917;SDS011;4004;42.624;23.386;2023-12-20T01:07:34;9.75;;;7.35;;
7917;SDS011;4004;42.624;23.386;2023-12-20T01:10:01;7.78;;;6.97;;
7917;SDS011;4004;42.624;23.386;2023-12-20T01:12:28;10.23;;;7.78;;
7917;SDS011;4004;42.624;23.386;2023-12-20T01:14:55;10.65;;;7.40;;
7917;SDS011;4004;42.624;23.386;2023-12-20T01:17:23;9.68;;;8.07;;
7917;SDS011;4004;42.624;23.386;2023-12-20T01:19:50;8.02;;;6.55;;
7917;SDS011;4004;42.624;23.386;2023-12-20T01:22:18;9.35;;;7.57;;
7917;SDS011;4004;42.624;23.386;2023-12-20T01:24:45;10.52;;;8.30;;
7917;SDS011;4004;42.624;23.386;2023-12-20T01:27:12;11.35;;;8.13;;
7917;SDS011;4004;42.624;23.386;2023-12-20T01:29:39;9.50;;;7.63;;
7917;SDS011;4004;42.624;23.386;2023-12-20T01:32:06;12.02;;;7.88;;
7917;SDS011;4004;42.624;23.386;2023-12-20T01:34:33;13.63;;;8.10;;
7917;SDS011;4004;42.624;23.386;2023-12-20T01:37:01;9.82;;;8.15;;
7917;SDS011;4004;42.624;23.386;2023-12-20T01:39:30;10.55;;;7.57;;
7917;SDS011;4004;42.624;23.386;2023-12-20T01:41:57;11.52;;;8.10;;
7917;SDS011;4004;42.624;23.386;2023-12-20T01:44:24;10.25;;;8.15;;
7917;SDS011;4004;42.624;23.386;2023-12-20T01:46:51;11.90;;;8.38;;
7917;SDS011;4004;42.624;23.386;2023-12-20T01:49:18;9.02;;;7.80;;
7917;SDS011;4004;42.624;23.386;2023-12-20T01:51:46;10.68;;;8.05;;
7917;SDS011;4004;42.624;23.386;2023-12-20T01:54:13;12.05;;;8.45;;
7917;SDS011;4004;42.624;23.386;2023-12-20T01:56:41;11.68;;;8.82;;
7917;SDS011;4004;42.624;23.386;2023-12-20T01:59:09;10.82;;;8.20;;
7917;SDS011;4004;42.624;23.386;2023-12-20T02:01:35;10.00;;;8.20;;
7917;SDS011;4004;42.624;23.386;2023-12-20T02:04:03;11.60;;;8.30;;
7917;SDS011;4004;42.624;23.386;2023-12-20T02:06:30;10.65;;;7.78;;
7917;SDS011;4004;42.624;23.386;2023-12-20T02:08:59;10.55;;;7.90;;
7917;SDS011;4004;42.624;23.386;2023-12-20T02:11:27;8.80;;;7.55;;
7917;SDS011;4004;42.624;23.386;2023-12-20T02:13:55;11.73;;;8.05;;
7917;SDS011;4004;42.624;23.386;2023-12-20T02:16:22;11.85;;;8.20;;
7917;SDS011;4004;42.624;23.386;2023-12-20T02:18:49;9.40;;;7.70;;
7917;SDS011;4004;42.624;23.386;2023-12-20T02:21:16;10.88;;;7.43;;
7917;SDS011;4004;42.624;23.386;2023-12-20T02:23:44;10.05;;;8.23;;
7917;SDS011;4004;42.624;23.386;2023-12-20T02:26:11;8.90;;;7.47;;
7917;SDS011;4004;42.624;23.386;2023-12-20T02:28:39;9.63;;;7.18;;
7917;SDS011;4004;42.624;23.386;2023-12-20T02:31:06;10.73;;;8.10;;
7917;SDS011;4004;42.624;23.386;2023-12-20T02:33:33;10.70;;;7.75;;
7917;SDS011;4004;42.624;23.386;2023-12-20T02:36:00;10.50;;;7.55;;
7917;SDS011;4004;42.624;23.386;2023-12-20T02:38:27;8.20;;;7.25;;
7917;SDS011;4004;42.624;23.386;2023-12-20T02:40:55;9.55;;;7.90;;
7917;SDS011;4004;42.624;23.386;2023-12-20T02:43:22;9.55;;;7.30;;
7917;SDS011;4004;42.624;23.386;2023-12-20T02:45:49;10.35;;;8.02;;
7917;SDS011;4004;42.624;23.386;2023-12-20T02:48:16;12.25;;;7.65;;
7917;SDS011;4004;42.624;23.386;2023-12-20T02:50:42;9.98;;;7.63;;
7917;SDS011;4004;42.624;23.386;2023-12-20T02:53:09;11.55;;;7.43;;
7917;SDS011;4004;42.624;23.386;2023-12-20T02:55:36;10.02;;;7.50;;
7917;SDS011;4004;42.624;23.386;2023-12-20T02:58:04;10.85;;;8.35;;
7917;SDS011;4004;42.624;23.386;2023-12-20T03:00:31;10.95;;;7.95;;
7917;SDS011;4004;42.624;23.386;2023-12-20T03:02:59;10.63;;;8.30;;
7917;SDS011;4004;42.624;23.386;2023-12-20T03:05:26;9.60;;;7.35;;
7917;SDS011;4004;42.624;23.386;2023-12-20T03:07:53;10.85;;;7.93;;
7917;SDS011;4004;42.624;23.386;2023-12-20T03:10:19;9.10;;;7.63;;
7917;SDS011;4004;42.624;23.386;2023-12-20T03:12:46;12.10;;;8.05;;
7917;SDS011;4004;42.624;23.386;2023-12-20T03:15:15;9.10;;;7.13;;
7917;SDS011;4004;42.624;23.386;2023-12-20T03:17:42;11.80;;;7.30;;
7917;SDS011;4004;42.624;23.386;2023-12-20T03:20:09;12.05;;;8.00;;
7917;SDS011;4004;42.624;23.386;2023-12-20T03:22:36;10.30;;;7.22;;
7917;SDS011;4004;42.624;23.386;2023-12-20T03:25:03;9.27;;;7.05;;
7917;SDS011;4004;42.624;23.386;2023-12-20T03:27:30;10.10;;;7.82;;
7917;SDS011;4004;42.624;23.386;2023-12-20T03:29:57;10.18;;;7.40;;
7917;SDS011;4004;42.624;23.386;2023-12-20T03:32:25;8.10;;;6.57;;
7917;SDS011;4004;42.624;23.386;2023-12-20T03:34:52;8.32;;;6.50;;
7917;SDS011;4004;42.624;23.386;2023-12-20T03:37:19;12.07;;;8.68;;
7917;SDS011;4004;42.624;23.386;2023-12-20T03:39:45;15.75;;;10.30;;
7917;SDS011;4004;42.624;23.386;2023-12-20T03:42:12;21.70;;;16.17;;
7917;SDS011;4004;42.624;23.386;2023-12-20T03:44:39;21.80;;;14.60;;
7917;SDS011;4004;42.624;23.386;2023-12-20T03:47:06;11.90;;;9.43;;
7917;SDS011;4004;42.624;23.386;2023-12-20T03:49:34;12.65;;;8.88;;
7917;SDS011;4004;42.624;23.386;2023-12-20T03:52:02;11.95;;;9.48;;
7917;SDS011;4004;42.624;23.386;2023-12-20T03:54:29;10.05;;;7.72;;
7917;SDS011;4004;42.624;23.386;2023-12-20T03:56:56;10.82;;;7.10;;
7917;SDS011;4004;42.624;23.386;2023-12-20T03:59:23;10.57;;;7.75;;
7917;SDS011;4004;42.624;23.386;2023-12-20T04:01:50;12.88;;;7.55;;
7917;SDS011;4004;42.624;23.386;2023-12-20T04:04:17;10.95;;;7.40;;
7917;SDS011;4004;42.624;23.386;2023-12-20T04:06:45;10.40;;;7.45;;
7917;SDS011;4004;42.624;23.386;2023-12-20T04:09:12;12.65;;;7.93;;
7917;SDS011;4004;42.624;23.386;2023-12-20T04:11:39;12.20;;;8.35;;
7917;SDS011;4004;42.624;23.386;2023-12-20T04:14:05;10.50;;;8.23;;
7917;SDS011;4004;42.624;23.386;2023-12-20T04:16:32;11.93;;;7.85;;
7917;SDS011;4004;42.624;23.386;2023-12-20T04:18:59;13.07;;;8.80;;
7917;SDS011;4004;42.624;23.386;2023-12-20T04:21:26;10.52;;;7.63;;
7917;SDS011;4004;42.624;23.386;2023-12-20T04:23:54;8.55;;;6.85;;
7917;SDS011;4004;42.624;23.386;2023-12-20T04:26:21;8.90;;;7.15;;
7917;SDS011;4004;42.624;23.386;2023-12-20T04:28:48;10.23;;;7.05;;
7917;SDS011;4004;42.624;23.386;2023-12-20T04:31:15;8.07;;;7.05;;
7917;SDS011;4004;42.624;23.386;2023-12-20T04:33:42;7.85;;;6.20;;
7917;SDS011;4004;42.624;23.386;2023-12-20T04:36:09;9.85;;;7.25;;
7917;SDS011;4004;42.624;23.386;2023-12-20T04:38:36;8.30;;;7.10;;
7917;SDS011;4004;42.624;23.386;2023-12-20T04:41:04;9.93;;;7.70;;
7917;SDS011;4004;42.624;23.386;2023-12-20T04:43:31;8.38;;;6.97;;
7917;SDS011;4004;42.624;23.386;2023-12-20T04:45:58;8.57;;;7.03;;
7917;SDS011;4004;42.624;23.386;2023-12-20T04:48:25;11.52;;;7.63;;
7917;SDS011;4004;42.624;23.386;2023-12-20T04:50:51;10.07;;;7.07;;
7917;SDS011;4004;42.624;23.386;2023-12-20T04:53:18;9.48;;;7.05;;
7917;SDS011;4004;42.624;23.386;2023-12-20T04:55:45;8.90;;;7.82;;
7917;SDS011;4004;42.624;23.386;2023-12-20T04:58:13;12.43;;;8.90;;
7917;SDS011;4004;42.624;23.386;2023-12-20T05:00:40;64.80;;;47.17;;
7917;SDS011;4004;42.624;23.386;2023-12-20T05:03:07;24.35;;;18.77;;
7917;SDS011;4004;42.624;23.386;2023-12-20T05:05:34;26.13;;;14.05;;
7917;SDS011;4004;42.624;23.386;2023-12-20T05:08:01;17.73;;;13.68;;
7917;SDS011;4004;42.624;23.386;2023-12-20T05:10:29;13.75;;;10.82;;
7917;SDS011;4004;42.624;23.386;2023-12-20T05:12:56;43.70;;;26.17;;
7917;SDS011;4004;42.624;23.386;2023-12-20T05:15:24;36.67;;;19.83;;
7917;SDS011;4004;42.624;23.386;2023-12-20T05:17:51;39.33;;;18.77;;
7917;SDS011;4004;42.624;23.386;2023-12-20T05:20:18;55.15;;;19.30;;
7917;SDS011;4004;42.624;23.386;2023-12-20T05:22:44;100.32;;;19.05;;
7917;SDS011;4004;42.624;23.386;2023-12-20T05:25:12;63.13;;;19.45;;
7917;SDS011;4004;42.624;23.386;2023-12-20T05:27:39;159.05;;;100.75;;
7917;SDS011;4004;42.624;23.386;2023-12-20T05:30:06;57.88;;;31.98;;
7917;SDS011;4004;42.624;23.386;2023-12-20T05:32:35;57.05;;;19.65;;
7917;SDS011;4004;42.624;23.386;2023-12-20T05:35:02;27.10;;;15.02;;
7917;SDS011;4004;42.624;23.386;2023-12-20T05:37:30;21.25;;;17.08;;
7917;SDS011;4004;42.624;23.386;2023-12-20T05:39:56;45.92;;;21.27;;
7917;SDS011;4004;42.624;23.386;2023-12-20T05:42:23;28.50;;;20.92;;
7917;SDS011;4004;42.624;23.386;2023-12-20T05:44:50;273.60;;;147.00;;
7917;SDS011;4004;42.624;23.386;2023-12-20T05:47:17;65.13;;;45.40;;
7917;SDS011;4004;42.624;23.386;2023-12-20T05:49:46;29.55;;;23.15;;
7917;SDS011;4004;42.624;23.386;2023-12-20T05:52:12;24.75;;;17.73;;
7917;SDS011;4004;42.624;23.386;2023-12-20T05:54:39;35.40;;;22.20;;
7917;SDS011;4004;42.624;23.386;2023-12-20T05:57:06;33.22;;;21.98;;
7917;SDS011;4004;42.624;23.386;2023-12-20T05:59:33;42.35;;;21.77;;
7917;SDS011;4004;42.624;23.386;2023-12-20T06:02:00;52.90;;;17.30;;
7917;SDS011;4004;42.624;23.386;2023-12-20T06:04:27;29.50;;;18.08;;
7917;SDS011;4004;42.624;23.386;2023-12-20T06:06:55;83.50;;;20.05;;
7917;SDS011;4004;42.624;23.386;2023-12-20T06:09:22;309.70;;;28.70;;
7917;SDS011;4004;42.624;23.386;2023-12-20T06:11:49;178.57;;;25.95;;
7917;SDS011;4004;42.624;23.386;2023-12-20T06:14:16;164.10;;;25.42;;
7917;SDS011;4004;42.624;23.386;2023-12-20T06:16:43;250.55;;;25.67;;
7917;SDS011;4004;42.624;23.386;2023-12-20T06:19:10;117.65;;;23.42;;
7917;SDS011;4004;42.624;23.386;2023-12-20T06:21:37;120.40;;;21.50;;
7917;SDS011;4004;42.624;23.386;2023-12-20T06:24:05;123.43;;;24.98;;
7917;SDS011;4004;42.624;23.386;2023-12-20T06:26:32;93.90;;;22.42;;
7917;SDS011;4004;42.624;23.386;2023-12-20T06:28:59;57.95;;;22.60;;
7917;SDS011;4004;42.624;23.386;2023-12-20T06:31:26;63.78;;;24.65;;
7917;SDS011;4004;42.624;23.386;2023-12-20T06:33:53;80.13;;;26.80;;
7917;SDS011;4004;42.624;23.386;2023-12-20T06:36:22;73.20;;;26.02;;
7917;SDS011;4004;42.624;23.386;2023-12-20T06:38:49;75.30;;;25.70;;
7917;SDS011;4004;42.624;23.386;2023-12-20T06:41:18;51.80;;;26.25;;
7917;SDS011;4004;42.624;23.386;2023-12-20T06:43:45;42.72;;;24.77;;
7917;SDS011;4004;42.624;23.386;2023-12-20T06:46:12;40.28;;;24.75;;
7917;SDS011;4004;42.624;23.386;2023-12-20T06:48:39;37.08;;;23.52;;
7917;SDS011;4004;42.624;23.386;2023-12-20T06:51:06;40.13;;;25.35;;
7917;SDS011;4004;42.624;23.386;2023-12-20T06:53:33;34.70;;;21.92;;
7917;SDS011;4004;42.624;23.386;2023-12-20T06:56:00;29.75;;;19.20;;
7917;SDS011;4004;42.624;23.386;2023-12-20T06:58:29;29.27;;;20.07;;
7917;SDS011;4004;42.624;23.386;2023-12-20T07:00:56;23.70;;;17.87;;
7917;SDS011;4004;42.624;23.386;2023-12-20T07:03:23;22.87;;;16.17;;
7917;SDS011;4004;42.624;23.386;2023-12-20T07:05:49;24.07;;;17.70;;
7917;SDS011;4004;42.624;23.386;2023-12-20T07:08:16;20.90;;;14.53;;
7917;SDS011;4004;42.624;23.386;2023-12-20T07:10:44;23.93;;;16.13;;
7917;SDS011;4004;42.624;23.386;2023-12-20T07:13:11;23.97;;;17.33;;
7917;SDS011;4004;42.624;23.386;2023-12-20T07:15:40;18.20;;;12.93;;
7917;SDS011;4004;42.624;23.386;2023-12-20T07:18:07;20.47;;;14.17;;
7917;SDS011;4004;42.624;23.386;2023-12-20T07:20:34;22.60;;;16.50;;
7917;SDS011;4004;42.624;23.386;2023-12-20T07:23:01;25.13;;;17.30;;
7917;SDS011;4004;42.624;23.386;2023-12-20T07:25:28;26.83;;;18.13;;
7917;SDS011;4004;42.624;23.386;2023-12-20T07:27:57;23.20;;;16.47;;
7917;SDS011;4004;42.624;23.386;2023-12-20T07:30:24;25.00;;;17.03;;
7917;SDS011;4004;42.624;23.386;2023-12-20T07:32:52;28.43;;;18.33;;
7917;SDS011;4004;42.624;23.386;2023-12-20T07:35:19;25.50;;;17.97;;
7917;SDS011;4004;42.624;23.386;2023-12-20T07:37:46;27.83;;;17.97;;
7917;SDS011;4004;42.624;23.386;2023-12-20T07:40:13;27.00;;;18.20;;
7917;SDS011;4004;42.624;23.386;2023-12-20T07:42:42;37.20;;;23.07;;
7917;SDS011;4004;42.624;23.386;2023-12-20T07:45:09;53.30;;;26.30;;
7917;SDS011;4004;42.624;23.386;2023-12-20T07:47:37;52.43;;;28.43;;
7917;SDS011;4004;42.624;23.386;2023-12-20T07:50:06;71.10;;;26.53;;
7917;SDS011;4004;42.624;23.386;2023-12-20T07:52:33;84.85;;;27.98;;
7917;SDS011;4004;42.624;23.386;2023-12-20T07:54:59;137.20;;;33.03;;
7917;SDS011;4004;42.624;23.386;2023-12-20T07:57:28;148.73;;;34.13;;
7917;SDS011;4004;42.624;23.386;2023-12-20T07:59:55;102.30;;;30.43;;
7917;SDS011;4004;42.624;23.386;2023-12-20T08:02:22;73.13;;;31.07;;
7917;SDS011;4004;42.624;23.386;2023-12-20T08:04:49;69.27;;;31.27;;
7917;SDS011;4004;42.624;23.386;2023-12-20T08:07:17;113.55;;;32.28;;
7917;SDS011;4004;42.624;23.386;2023-12-20T08:09:44;102.88;;;37.55;;
7917;SDS011;4004;42.624;23.386;2023-12-20T08:12:11;77.40;;;33.55;;
7917;SDS011;4004;42.624;23.386;2023-12-20T08:14:38;68.67;;;33.97;;
7917;SDS011;4004;42.624;23.386;2023-12-20T08:17:05;91.93;;;37.13;;
7917;SDS011;4004;42.624;23.386;2023-12-20T08:19:32;82.07;;;37.07;;
7917;SDS011;4004;42.624;23.386;2023-12-20T08:21:59;78.32;;;42.75;;
7917;SDS011;4004;42.624;23.386;2023-12-20T08:24:27;84.47;;;42.42;;
7917;SDS011;4004;42.624;23.386;2023-12-20T08:26:54;100.50;;;52.85;;
7917;SDS011;4004;42.624;23.386;2023-12-20T08:29:20;95.57;;;39.17;;
7917;SDS011;4004;42.624;23.386;2023-12-20T08:31:51;70.83;;;37.43;;
7917;SDS011;4004;42.624;23.386;2023-12-20T08:34:19;72.77;;;38.00;;
7917;SDS011;4004;42.624;23.386;2023-12-20T08:36:46;63.37;;;35.67;;
7917;SDS011;4004;42.624;23.386;2023-12-20T08:39:13;56.33;;;30.50;;
7917;SDS011;4004;42.624;23.386;2023-12-20T08:41:41;49.90;;;30.03;;
7917;SDS011;4004;42.624;23.386;2023-12-20T08:44:08;57.13;;;30.70;;
7917;SDS011;4004;42.624;23.386;2023-12-20T08:46:35;63.08;;;28.95;;
7917;SDS011;4004;42.624;23.386;2023-12-20T08:49:02;64.50;;;30.02;;
7917;SDS011;4004;42.624;23.386;2023-12-20T08:51:29;58.30;;;29.53;;
7917;SDS011;4004;42.624;23.386;2023-12-20T08:53:56;51.53;;;28.80;;
7917;SDS011;4004;42.624;23.386;2023-12-20T08:56:22;50.57;;;29.97;;
7917;SDS011;4004;42.624;23.386;2023-12-20T08:58:51;58.03;;;28.85;;
7917;SDS011;4004;42.624;23.386;2023-12-20T09:01:18;46.20;;;25.67;;
7917;SDS011;4004;42.624;23.386;2023-12-20T09:03:44;53.03;;;28.77;;
7917;SDS011;4004;42.624;23.386;2023-12-20T09:06:11;59.55;;;28.30;;
7917;SDS011;4004;42.624;23.386;2023-12-20T09:08:38;51.30;;;28.07;;
7917;SDS011;4004;42.624;23.386;2023-12-20T09:11:06;55.38;;;27.77;;
7917;SDS011;4004;42.624;23.386;2023-12-20T09:13:33;69.63;;;29.60;;
7917;SDS011;4004;42.624;23.386;2023-12-20T09:16:02;59.40;;;31.37;;
7917;SDS011;4004;42.624;23.386;2023-12-20T09:18:29;106.40;;;30.93;;
7917;SDS011;4004;42.624;23.386;2023-12-20T09:20:56;81.22;;;31.10;;
7917;SDS011;4004;42.624;23.386;2023-12-20T09:23:23;71.95;;;34.50;;
7917;SDS011;4004;42.624;23.386;2023-12-20T09:25:50;97.47;;;35.42;;
7917;SDS011;4004;42.624;23.386;2023-12-20T09:28:17;106.07;;;40.40;;
7917;SDS011;4004;42.624;23.386;2023-12-20T09:30:44;77.78;;;38.75;;
7917;SDS011;4004;42.624;23.386;2023-12-20T09:33:12;93.90;;;40.20;;
7917;SDS011;4004;42.624;23.386;2023-12-20T09:35:39;60.73;;;34.73;;
7917;SDS011;4004;42.624;23.386;2023-12-20T09:38:06;77.40;;;37.60;;
7917;SDS011;4004;42.624;23.386;2023-12-20T09:40:33;91.10;;;39.45;;
7917;SDS011;4004;42.624;23.386;2023-12-20T09:43:03;78.90;;;37.85;;
7917;SDS011;4004;42.624;23.386;2023-12-20T09:45:30;76.20;;;37.38;;
7917;SDS011;4004;42.624;23.386;2023-12-20T09:47:58;70.97;;;38.47;;
7917;SDS011;4004;42.624;23.386;2023-12-20T09:50:27;68.38;;;40.28;;
7917;SDS011;4004;42.624;23.386;2023-12-20T09:52:55;77.77;;;38.33;;
7917;SDS011;4004;42.624;23.386;2023-12-20T09:55:25;61.93;;;36.43;;
7917;SDS011;4004;42.624;23.386;2023-12-20T09:57:53;62.03;;;35.80;;
7917;SDS011;4004;42.624;23.386;2023-12-20T10:00:20;70.53;;;35.73;;
7917;SDS011;4004;42.624;23.386;2023-12-20T10:02:49;74.77;;;37.70;;
7917;SDS011;4004;42.624;23.386;2023-12-20T10:05:23;74.40;;;39.67;;
7917;SDS011;4004;42.624;23.386;2023-12-20T10:07:54;76.73;;;37.93;;
7917;SDS011;4004;42.624;23.386;2023-12-20T10:10:21;71.77;;;37.13;;
7917;SDS011;4004;42.624;23.386;2023-12-20T10:13:00;65.77;;;36.10;;
7917;SDS011;4004;42.624;23.386;2023-12-20T10:15:28;59.67;;;34.23;;
7917;SDS011;4004;42.624;23.386;2023-12-20T10:17:56;58.37;;;34.77;;
7917;SDS011;4004;42.624;23.386;2023-12-20T10:20:23;58.63;;;34.57;;
7917;SDS011;4004;42.624;23.386;2023-12-20T10:22:51;52.77;;;32.83;;
7917;SDS011;4004;42.624;23.386;2023-12-20T10:25:19;54.60;;;33.30;;
7917;SDS011;4004;42.624;23.386;2023-12-20T10:27:47;56.00;;;34.97;;
7917;SDS011;4004;42.624;23.386;2023-12-20T10:30:14;55.67;;;34.50;;
7917;SDS011;4004;42.624;23.386;2023-12-20T10:32:41;62.77;;;35.53;;
7917;SDS011;4004;42.624;23.386;2023-12-20T10:35:08;55.87;;;34.40;;
7917;SDS011;4004;42.624;23.386;2023-12-20T10:37:36;56.73;;;34.73;;
7917;SDS011;4004;42.624;23.386;2023-12-20T10:40:05;56.10;;;36.37;;
7917;SDS011;4004;42.624;23.386;2023-12-20T10:42:32;58.00;;;35.03;;
7917;SDS011;4004;42.624;23.386;2023-12-20T10:45:01;58.67;;;35.77;;
7917;SDS011;4004;42.624;23.386;2023-12-20T10:47:29;58.33;;;36.47;;
7917;SDS011;4004;42.624;23.386;2023-12-20T10:49:58;64.77;;;38.90;;
7917;SDS011;4004;42.624;23.386;2023-12-20T10:52:27;61.47;;;36.40;;
7917;SDS011;4004;42.624;23.386;2023-12-20T10:54:58;68.53;;;41.60;;
7917;SDS011;4004;42.624;23.386;2023-12-20T10:57:26;76.60;;;44.70;;
7917;SDS011;4004;42.624;23.386;2023-12-20T10:59:55;73.20;;;45.77;;
7917;SDS011;4004;42.624;23.386;2023-12-20T11:02:25;82.33;;;48.27;;
7917;SDS011;4004;42.624;23.386;2023-12-20T11:04:53;81.38;;;47.38;;
7917;SDS011;4004;42.624;23.386;2023-12-20T11:07:28;73.83;;;45.17;;
7917;SDS011;4004;42.624;23.386;2023-12-20T11:09:59;75.93;;;47.33;;
7917;SDS011;4004;42.624;23.386;2023-12-20T11:12:35;77.77;;;45.13;;
7917;SDS011;4004;42.624;23.386;2023-12-20T11:15:07;72.03;;;42.97;;
7917;SDS011;4004;42.624;23.386;2023-12-20T11:17:35;70.33;;;43.17;;
7917;SDS011;4004;42.624;23.386;2023-12-20T11:20:06;60.28;;;39.50;;
7917;SDS011;4004;42.624;23.386;2023-12-20T11:22:35;52.97;;;34.50;;
7917;SDS011;4004;42.624;23.386;2023-12-20T11:25:04;42.10;;;28.43;;
7917;SDS011;4004;42.624;23.386;2023-12-20T11:27:36;44.83;;;29.27;;
7917;SDS011;4004;42.624;23.386;2023-12-20T11:30:07;42.23;;;28.50;;
7917;SDS011;4004;42.624;23.386;2023-12-20T11:32:35;44.20;;;30.63;;
7917;SDS011;4004;42.624;23.386;2023-12-20T11:35:16;53.70;;;33.83;;
7917;SDS011;4004;42.624;23.386;2023-12-20T11:37:44;59.40;;;35.20;;
7917;SDS011;4004;42.624;23.386;2023-12-20T11:40:13;75.70;;;36.57;;
7917;SDS011;4004;42.624;23.386;2023-12-20T11:42:43;55.73;;;33.17;;
7917;SDS011;4004;42.624;23.386;2023-12-20T11:45:11;58.22;;;36.28;;
7917;SDS011;4004;42.624;23.386;2023-12-20T11:47:41;68.43;;;39.33;;
7917;SDS011;4004;42.624;23.386;2023-12-20T11:50:09;65.13;;;38.60;;
7917;SDS011;4004;42.624;23.386;2023-12-20T11:52:36;70.27;;;39.53;;
7917;SDS011;4004;42.624;23.386;2023-12-20T11:55:03;68.33;;;42.73;;
7917;SDS011;4004;42.624;23.386;2023-12-20T11:57:31;74.43;;;45.30;;
7917;SDS011;4004;42.624;23.386;2023-12-20T12:00:00;74.00;;;50.35;;
7917;SDS011;4004;42.624;23.386;2023-12-20T12:02:26;69.50;;;44.13;;
7917;SDS011;4004;42.624;23.386;2023-12-20T12:04:53;67.07;;;42.00;;
7917;SDS011;4004;42.624;23.386;2023-12-20T12:07:21;65.93;;;41.47;;
7917;SDS011;4004;42.624;23.386;2023-12-20T12:09:48;68.80;;;42.17;;
7917;SDS011;4004;42.624;23.386;2023-12-20T12:12:16;67.53;;;42.53;;
7917;SDS011;4004;42.624;23.386;2023-12-20T12:14:44;62.00;;;41.83;;
7917;SDS011;4004;42.624;23.386;2023-12-20T12:17:13;70.33;;;40.37;;
7917;SDS011;4004;42.624;23.386;2023-12-20T12:19:40;62.87;;;39.53;;
7917;SDS011;4004;42.624;23.386;2023-12-20T12:22:08;67.47;;;38.07;;
7917;SDS011;4004;42.624;23.386;2023-12-20T12:24:38;55.30;;;37.20;;
7917;SDS011;4004;42.624;23.386;2023-12-20T12:27:05;57.13;;;37.40;;
7917;SDS011;4004;42.624;23.386;2023-12-20T12:29:33;52.90;;;34.23;;
7917;SDS011;4004;42.624;23.386;2023-12-20T12:32:00;53.97;;;36.27;;
7917;SDS011;4004;42.624;23.386;2023-12-20T12:34:29;57.43;;;37.93;;
7917;SDS011;4004;42.624;23.386;2023-12-20T12:36:56;55.63;;;35.10;;
7917;SDS011;4004;42.624;23.386;2023-12-20T12:39:23;60.43;;;37.17;;
7917;SDS011;4004;42.624;23.386;2023-12-20T12:41:52;61.63;;;37.90;;
7917;SDS011;4004;42.624;23.386;2023-12-20T12:44:19;70.60;;;42.77;;
7917;SDS011;4004;42.624;23.386;2023-12-20T12:46:48;87.23;;;52.47;;
7917;SDS011;4004;42.624;23.386;2023-12-20T12:49:16;74.47;;;46.93;;
7917;SDS011;4004;42.624;23.386;2023-12-20T12:51:44;85.47;;;49.30;;
7917;SDS011;4004;42.624;23.386;2023-12-20T12:54:11;76.40;;;47.47;;
7917;SDS011;4004;42.624;23.386;2023-12-20T12:56:41;76.17;;;46.57;;
7917;SDS011;4004;42.624;23.386;2023-12-20T12:59:08;66.10;;;42.07;;
7917;SDS011;4004;42.624;23.386;2023-12-20T13:01:35;58.73;;;36.13;;
7917;SDS011;4004;42.624;23.386;2023-12-20T13:04:02;59.07;;;35.90;;
7917;SDS011;4004;42.624;23.386;2023-12-20T13:06:31;54.00;;;34.07;;
7917;SDS011;4004;42.624;23.386;2023-12-20T13:09:00;46.37;;;29.80;;
7917;SDS011;4004;42.624;23.386;2023-12-20T13:11:27;52.77;;;33.53;;
7917;SDS011;4004;42.624;23.386;2023-12-20T13:13:54;58.40;;;35.90;;
7917;SDS011;4004;42.624;23.386;2023-12-20T13:16:21;63.53;;;38.03;;
7917;SDS011;4004;42.624;23.386;2023-12-20T13:18:48;62.00;;;37.90;;
7917;SDS011;4004;42.624;23.386;2023-12-20T13:21:15;63.87;;;38.70;;
7917;SDS011;4004;42.624;23.386;2023-12-20T13:23:42;77.17;;;44.43;;
7917;SDS011;4004;42.624;23.386;2023-12-20T13:26:10;67.10;;;42.90;;
7917;SDS011;4004;42.624;23.386;2023-12-20T13:28:37;79.07;;;45.77;;
7917;SDS011;4004;42.624;23.386;2023-12-20T13:31:04;73.20;;;47.00;;
7917;SDS011;4004;42.624;23.386;2023-12-20T13:33:31;83.13;;;49.67;;
7917;SDS011;4004;42.624;23.386;2023-12-20T13:35:58;83.57;;;49.70;;
7917;SDS011;4004;42.624;23.386;2023-12-20T13:38:24;85.73;;;52.67;;
7917;SDS011;4004;42.624;23.386;2023-12-20T13:40:51;106.23;;;65.63;;
7917;SDS011;4004;42.624;23.386;2023-12-20T13:43:20;160.27;;;95.13;;
7917;SDS011;4004;42.624;23.386;2023-12-20T13:45:47;103.50;;;60.17;;
7917;SDS011;4004;42.624;23.386;2023-12-20T13:48:14;82.20;;;48.90;;
7917;SDS011;4004;42.624;23.386;2023-12-20T13:50:41;71.93;;;43.73;;
7917;SDS011;4004;42.624;23.386;2023-12-20T13:53:08;69.10;;;42.57;;
7917;SDS011;4004;42.624;23.386;2023-12-20T13:55:35;85.53;;;50.00;;
7917;SDS011;4004;42.624;23.386;2023-12-20T13:58:02;78.40;;;49.30;;
7917;SDS011;4004;42.624;23.386;2023-12-20T14:00:30;83.47;;;48.93;;
7917;SDS011;4004;42.624;23.386;2023-12-20T14:02:57;80.60;;;47.73;;
7917;SDS011;4004;42.624;23.386;2023-12-20T14:05:24;78.50;;;50.20;;
7917;SDS011;4004;42.624;23.386;2023-12-20T14:07:52;76.03;;;48.23;;
7917;SDS011;4004;42.624;23.386;2023-12-20T14:10:18;108.97;;;59.80;;
7917;SDS011;4004;42.624;23.386;2023-12-20T14:12:45;143.53;;;63.77;;
7917;SDS011;4004;42.624;23.386;2023-12-20T14:15:12;125.27;;;61.37;;
7917;SDS011;4004;42.624;23.386;2023-12-20T14:17:41;104.20;;;57.37;;
7917;SDS011;4004;42.624;23.386;2023-12-20T14:20:08;111.90;;;61.43;;
7917;SDS011;4004;42.624;23.386;2023-12-20T14:22:37;121.60;;;61.00;;
7917;SDS011;4004;42.624;23.386;2023-12-20T14:25:10;110.23;;;60.70;;
7917;SDS011;4004;42.624;23.386;2023-12-20T14:27:37;119.13;;;57.50;;
7917;SDS011;4004;42.624;23.386;2023-12-20T14:30:04;106.50;;;57.00;;
7917;SDS011;4004;42.624;23.386;2023-12-20T14:32:34;98.87;;;52.90;;
7917;SDS011;4004;42.624;23.386;2023-12-20T14:35:05;95.37;;;52.43;;
7917;SDS011;4004;42.624;23.386;2023-12-20T14:37:33;88.70;;;47.60;;
7917;SDS011;4004;42.624;23.386;2023-12-20T14:40:00;86.67;;;46.73;;